sensor_id;sensor_type;location;lat;lon;timestamp;pressure;altitude;pressure_sealevel;temperature;humidity
29549;BME280;16487;53.094;8.800;2022-09-09T00:02:18;101804.69;;;15.25;62.15
29549;BME280;16487;53.094;8.800;2022-09-09T00:04:55;101804.34;;;15.23;62.15
29549;BME280;16487;53.094;8.800;2022-09-09T00:07:32;101827.72;;;15.20;61.89
29549;BME280;16487;53.094;8.800;2022-09-09T00:10:14;101830.09;;;15.22;61.89
29549;BME280;16487;53.094;8.800;2022-09-09T00:12:51;101837.59;;;15.25;61.74
29549;BME280;16487;53.094;8.800;2022-09-09T00:15:23;101830.84;;;15.22;61.76
29549;BME280;16487;53.094;8.800;2022-09-09T00:17:55;101846.59;;;15.20;61.63
29549;BME280;16487;53.094;8.800;2022-09-09T00:20:29;101859.16;;;15.15;61.48
29549;BME280;16487;53.094;8.800;2022-09-09T00:23:03;101866.22;;;15.07;61.45
29549;BME280;16487;53.094;8.800;2022-09-09T00:25:40;101877.81;;;15.09;61.32
29549;BME280;16487;53.094;8.800;2022-09-09T00:28:16;101880.25;;;15.07;61.10
29549;BME280;16487;53.094;8.800;2022-09-09T00:30:46;101898.00;;;15.04;60.95
29549;BME280;16487;53.094;8.800;2022-09-09T00:33:15;101918.56;;;15.01;60.75
29549;BME280;16487;53.094;8.800;2022-09-09T00:35:44;101924.50;;;15.03;60.76
29549;BME280;16487;53.094;8.800;2022-09-09T00:38:17;101938.88;;;15.05;60.51
29549;BME280;16487;53.094;8.800;2022-09-09T00:40:49;101958.00;;;15.10;60.40
29549;BME280;16487;53.094;8.800;2022-09-09T00:43:29;101954.63;;;15.03;60.41
29549;BME280;16487;53.094;8.800;2022-09-09T00:46:23;101972.78;;;14.98;60.36
29549;BME280;16487;53.094;8.800;2022-09-09T00:48:59;101969.63;;;14.96;60.46
29549;BME280;16487;53.094;8.800;2022-09-09T00:51:38;101888.75;;;14.91;60.42
29549;BME280;16487;53.094;8.800;2022-09-09T00:54:21;101907.00;;;14.99;60.26
29549;BME280;16487;53.094;8.800;2022-09-09T00:56:59;101903.84;;;14.97;60.38
29549;BME280;16487;53.094;8.800;2022-09-09T00:59:40;101906.09;;;15.02;60.31
29549;BME280;16487;53.094;8.800;2022-09-09T01:02:19;101905.41;;;14.98;60.45
29549;BME280;16487;53.094;8.800;2022-09-09T01:04:48;101896.97;;;14.98;60.61
29549;BME280;16487;53.094;8.800;2022-09-09T01:07:17;101879.00;;;14.96;60.74
29549;BME280;16487;53.094;8.800;2022-09-09T01:09:52;101863.94;;;14.89;60.96
29549;BME280;16487;53.094;8.800;2022-09-09T01:12:28;101855.97;;;14.88;61.05
29549;BME280;16487;53.094;8.800;2022-09-09T01:15:04;101847.31;;;14.82;61.12
29549;BME280;16487;53.094;8.800;2022-09-09T01:17:48;101860.88;;;14.84;61.15
29549;BME280;16487;53.094;8.800;2022-09-09T01:20:22;101856.97;;;14.81;61.31
29549;BME280;16487;53.094;8.800;2022-09-09T01:23:04;101848.19;;;14.79;61.44
29549;BME280;16487;53.094;8.800;2022-09-09T01:26:10;101839.09;;;14.75;61.70
29549;BME280;16487;53.094;8.800;2022-09-09T01:28:40;101825.06;;;14.75;61.89
29549;BME280;16487;53.094;8.800;2022-09-09T01:31:17;101809.91;;;14.73;62.08
29549;BME280;16487;53.094;8.800;2022-09-09T01:33:47;101810.81;;;14.70;62.14
29549;BME280;16487;53.094;8.800;2022-09-09T01:36:20;101786.09;;;14.65;62.58
29549;BME280;16487;53.094;8.800;2022-09-09T01:38:52;101781.72;;;14.64;62.68
29549;BME280;16487;53.094;8.800;2022-09-09T01:41:22;101770.16;;;14.62;62.93
29549;BME280;16487;53.094;8.800;2022-09-09T01:43:57;101772.59;;;14.60;63.01
29549;BME280;16487;53.094;8.800;2022-09-09T01:46:27;101759.72;;;14.62;63.18
29549;BME280;16487;53.094;8.800;2022-09-09T01:48:57;101754.22;;;14.59;63.34
29549;BME280;16487;53.094;8.800;2022-09-09T01:51:27;101740.75;;;14.54;63.68
29549;BME280;16487;53.094;8.800;2022-09-09T01:53:55;101739.16;;;14.53;63.87
29549;BME280;16487;53.094;8.800;2022-09-09T01:56:35;101756.31;;;14.55;63.99
29549;BME280;16487;53.094;8.800;2022-09-09T01:59:23;101750.91;;;14.48;64.33
29549;BME280;16487;53.094;8.800;2022-09-09T02:02:04;101746.56;;;14.47;64.54
29549;BME280;16487;53.094;8.800;2022-09-09T02:04:41;101741.50;;;14.42;64.88
29549;BME280;16487;53.094;8.800;2022-09-09T02:07:22;101737.00;;;14.44;65.11
29549;BME280;16487;53.094;8.800;2022-09-09T02:09:58;101725.56;;;14.39;65.45
29549;BME280;16487;53.094;8.800;2022-09-09T02:12:30;101733.09;;;14.42;65.41
29549;BME280;16487;53.094;8.800;2022-09-09T02:15:04;101731.69;;;14.34;65.83
29549;BME280;16487;53.094;8.800;2022-09-09T02:17:46;101728.69;;;14.28;66.21
29549;BME280;16487;53.094;8.800;2022-09-09T02:20:18;101741.34;;;14.33;66.26
29549;BME280;16487;53.094;8.800;2022-09-09T02:22:56;101741.34;;;14.33;66.52
29549;BME280;16487;53.094;8.800;2022-09-09T02:25:28;101749.44;;;14.31;66.51
29549;BME280;16487;53.094;8.800;2022-09-09T02:28:06;101733.38;;;14.31;67.13
29549;BME280;16487;53.094;8.800;2022-09-09T02:30:37;101727.00;;;14.31;67.21
29549;BME280;16487;53.094;8.800;2022-09-09T02:33:07;101727.00;;;14.31;67.49
29549;BME280;16487;53.094;8.800;2022-09-09T02:35:43;101727.00;;;14.31;67.78
29549;BME280;16487;53.094;8.800;2022-09-09T02:38:14;101727.44;;;14.29;68.16
29549;BME280;16487;53.094;8.800;2022-09-09T02:40:54;101710.16;;;14.31;68.61
29549;BME280;16487;53.094;8.800;2022-09-09T02:43:23;101712.63;;;14.29;68.56
29549;BME280;16487;53.094;8.800;2022-09-09T02:45:57;101704.38;;;14.22;68.95
29549;BME280;16487;53.094;8.800;2022-09-09T02:48:31;101676.13;;;14.16;69.73
29549;BME280;16487;53.094;8.800;2022-09-09T02:51:04;101674.78;;;14.21;69.65
29549;BME280;16487;53.094;8.800;2022-09-09T02:53:41;101670.84;;;14.18;69.97
29549;BME280;16487;53.094;8.800;2022-09-09T02:56:14;101669.84;;;14.12;70.40
29549;BME280;16487;53.094;8.800;2022-09-09T02:58:45;101666.56;;;14.14;70.68
29549;BME280;16487;53.094;8.800;2022-09-09T03:01:12;101660.28;;;14.10;71.17
29549;BME280;16487;53.094;8.800;2022-09-09T03:03:41;101665.03;;;14.13;71.01
29549;BME280;16487;53.094;8.800;2022-09-09T03:06:12;101660.28;;;14.10;71.30
29549;BME280;16487;53.094;8.800;2022-09-09T03:08:40;101663.44;;;14.12;71.68
29549;BME280;16487;53.094;8.800;2022-09-09T03:11:16;101655.91;;;14.09;72.07
29549;BME280;16487;53.094;8.800;2022-09-09T03:13:45;101663.09;;;14.10;72.12
29549;BME280;16487;53.094;8.800;2022-09-09T03:16:13;101657.81;;;14.12;72.79
29549;BME280;16487;53.094;8.800;2022-09-09T03:18:43;101644.25;;;14.10;73.36
29549;BME280;16487;53.094;8.800;2022-09-09T03:21:11;101647.41;;;14.12;73.68
29549;BME280;16487;53.094;8.800;2022-09-09T03:23:40;101646.50;;;14.15;73.82
29549;BME280;16487;53.094;8.800;2022-09-09T03:26:07;101651.66;;;14.17;74.08
29549;BME280;16487;53.094;8.800;2022-09-09T03:28:40;101638.34;;;14.21;74.99
29549;BME280;16487;53.094;8.800;2022-09-09T03:31:10;101635.06;;;14.22;75.36
29549;BME280;16487;53.094;8.800;2022-09-09T03:33:40;101639.88;;;14.22;75.52
29549;BME280;16487;53.094;8.800;2022-09-09T03:36:10;101643.94;;;14.21;75.63
29549;BME280;16487;53.094;8.800;2022-09-09T03:38:38;101647.44;;;14.25;76.06
29549;BME280;16487;53.094;8.800;2022-09-09T03:41:06;101633.41;;;14.25;76.80
29549;BME280;16487;53.094;8.800;2022-09-09T03:43:34;101629.41;;;14.26;77.61
29549;BME280;16487;53.094;8.800;2022-09-09T03:46:02;101631.06;;;14.23;78.51
29549;BME280;16487;53.094;8.800;2022-09-09T03:48:31;101626.66;;;14.22;78.67
29549;BME280;16487;53.094;8.800;2022-09-09T03:50:59;101615.38;;;14.26;79.46
29549;BME280;16487;53.094;8.800;2022-09-09T03:53:27;101599.75;;;14.25;80.59
29549;BME280;16487;53.094;8.800;2022-09-09T03:55:57;101591.59;;;14.30;80.98
29549;BME280;16487;53.094;8.800;2022-09-09T03:58:26;101601.13;;;14.33;81.44
29549;BME280;16487;53.094;8.800;2022-09-09T04:00:59;101589.13;;;14.32;82.51
29549;BME280;16487;53.094;8.800;2022-09-09T04:03:27;101584.31;;;14.33;82.65
29549;BME280;16487;53.094;8.800;2022-09-09T04:05:58;101570.28;;;14.33;83.82
29549;BME280;16487;53.094;8.800;2022-09-09T04:08:29;101572.28;;;14.32;84.34
29549;BME280;16487;53.094;8.800;2022-09-09T04:10:57;101581.50;;;14.33;84.47
29549;BME280;16487;53.094;8.800;2022-09-09T04:13:25;101571.53;;;14.32;84.98
29549;BME280;16487;53.094;8.800;2022-09-09T04:15:54;101577.13;;;14.32;85.47
29549;BME280;16487;53.094;8.800;2022-09-09T04:18:23;101580.47;;;14.39;85.13
29549;BME280;16487;53.094;8.800;2022-09-09T04:20:51;101586.53;;;14.38;85.84
29549;BME280;16487;53.094;8.800;2022-09-09T04:23:24;101584.09;;;14.40;85.69
29549;BME280;16487;53.094;8.800;2022-09-09T04:25:53;101583.28;;;14.39;86.41
29549;BME280;16487;53.094;8.800;2022-09-09T04:28:23;101586.31;;;14.45;86.82
29549;BME280;16487;53.094;8.800;2022-09-09T04:30:51;101582.84;;;14.41;87.84
29549;BME280;16487;53.094;8.800;2022-09-09T04:33:19;101579.25;;;14.40;88.69
29549;BME280;16487;53.094;8.800;2022-09-09T04:35:49;101584.88;;;14.40;88.89
29549;BME280;16487;53.094;8.800;2022-09-09T04:38:18;101579.47;;;14.46;89.01
29549;BME280;16487;53.094;8.800;2022-09-09T04:40:47;101569.50;;;14.45;90.04
29549;BME280;16487;53.094;8.800;2022-09-09T04:43:15;101575.34;;;14.50;90.37
29549;BME280;16487;53.094;8.800;2022-09-09T04:45:46;101580.94;;;14.50;90.60
29549;BME280;16487;53.094;8.800;2022-09-09T04:48:14;101581.63;;;14.54;90.86
29549;BME280;16487;53.094;8.800;2022-09-09T04:50:41;101587.22;;;14.54;91.92
29549;BME280;16487;53.094;8.800;2022-09-09T04:53:11;101590.03;;;14.54;91.68
29549;BME280;16487;53.094;8.800;2022-09-09T04:55:39;101596.06;;;14.53;92.17
29549;BME280;16487;53.094;8.800;2022-09-09T04:58:08;101595.97;;;14.56;92.50
29549;BME280;16487;53.094;8.800;2022-09-09T05:00:35;101590.81;;;14.55;93.69
29549;BME280;16487;53.094;8.800;2022-09-09T05:03:06;101586.78;;;14.56;93.97
29549;BME280;16487;53.094;8.800;2022-09-09T05:05:34;101601.91;;;14.58;94.48
29549;BME280;16487;53.094;8.800;2022-09-09T05:08:03;101595.66;;;14.54;95.46
29549;BME280;16487;53.094;8.800;2022-09-09T05:10:30;101598.44;;;14.54;95.93
29549;BME280;16487;53.094;8.800;2022-09-09T05:12:58;101598.75;;;14.56;97.27
29549;BME280;16487;53.094;8.800;2022-09-09T05:15:30;101593.25;;;14.53;98.37
29549;BME280;16487;53.094;8.800;2022-09-09T05:17:58;101594.50;;;14.52;98.54
29549;BME280;16487;53.094;8.800;2022-09-09T05:20:26;101577.69;;;14.52;100.00
29549;BME280;16487;53.094;8.800;2022-09-09T05:22:53;101587.34;;;14.51;100.00
29549;BME280;16487;53.094;8.800;2022-09-09T05:25:22;101583.75;;;14.50;100.00
29549;BME280;16487;53.094;8.800;2022-09-09T05:27:49;101609.44;;;14.49;100.00
29549;BME280;16487;53.094;8.800;2022-09-09T05:30:16;101602.94;;;14.52;100.00
29549;BME280;16487;53.094;8.800;2022-09-09T05:32:46;101611.69;;;14.54;100.00
29549;BME280;16487;53.094;8.800;2022-09-09T05:35:14;101606.50;;;14.65;100.00
29549;BME280;16487;53.094;8.800;2022-09-09T05:37:42;101600.34;;;14.57;100.00
29549;BME280;16487;53.094;8.800;2022-09-09T05:40:09;101600.25;;;14.61;100.00
29549;BME280;16487;53.094;8.800;2022-09-09T05:42:37;101602.47;;;14.66;100.00
29549;BME280;16487;53.094;8.800;2022-09-09T05:45:05;101590.47;;;14.65;100.00
29549;BME280;16487;53.094;8.800;2022-09-09T05:47:33;101600.00;;;14.68;100.00
29549;BME280;16487;53.094;8.800;2022-09-09T05:50:01;101588.78;;;14.68;100.00
29549;BME280;16487;53.094;8.800;2022-09-09T05:52:29;101573.50;;;14.69;100.00
29549;BME280;16487;53.094;8.800;2022-09-09T05:54:58;101569.91;;;14.68;100.00
29549;BME280;16487;53.094;8.800;2022-09-09T05:57:25;101569.47;;;14.70;100.00
29549;BME280;16487;53.094;8.800;2022-09-09T05:59:52;101561.38;;;14.72;100.00
29549;BME280;16487;53.094;8.800;2022-09-09T06:02:19;101559.03;;;14.70;100.00
29549;BME280;16487;53.094;8.800;2022-09-09T06:04:47;101552.38;;;14.77;100.00
29549;BME280;16487;53.094;8.800;2022-09-09T06:07:15;101542.50;;;14.85;100.00
29549;BME280;16487;53.094;8.800;2022-09-09T06:09:43;101545.06;;;14.92;100.00
29549;BME280;16487;53.094;8.800;2022-09-09T06:12:11;101534.03;;;14.98;100.00
29549;BME280;16487;53.094;8.800;2022-09-09T06:14:39;101531.38;;;14.94;100.00
29549;BME280;16487;53.094;8.800;2022-09-09T06:17:12;101526.06;;;14.96;100.00
29549;BME280;16487;53.094;8.800;2022-09-09T06:19:39;101531.66;;;14.96;100.00
29549;BME280;16487;53.094;8.800;2022-09-09T06:22:07;101518.88;;;14.95;100.00
29549;BME280;16487;53.094;8.800;2022-09-09T06:24:37;101508.31;;;14.99;100.00
29549;BME280;16487;53.094;8.800;2022-09-09T06:27:06;101497.44;;;15.01;100.00
29549;BME280;16487;53.094;8.800;2022-09-09T06:29:36;101493.44;;;15.11;100.00
29549;BME280;16487;53.094;8.800;2022-09-09T06:32:03;101489.13;;;15.19;100.00
29549;BME280;16487;53.094;8.800;2022-09-09T06:34:31;101477.31;;;15.24;100.00
29549;BME280;16487;53.094;8.800;2022-09-09T06:36:59;101463.91;;;15.28;100.00
29549;BME280;16487;53.094;8.800;2022-09-09T06:39:34;101455.22;;;15.35;100.00
29549;BME280;16487;53.094;8.800;2022-09-09T06:42:03;101441.19;;;15.35;100.00
29549;BME280;16487;53.094;8.800;2022-09-09T06:44:53;101424.34;;;15.35;100.00
29549;BME280;16487;53.094;8.800;2022-09-09T06:47:32;101408.53;;;15.29;100.00
29549;BME280;16487;53.094;8.800;2022-09-09T06:49:59;101405.72;;;15.29;100.00
29549;BME280;16487;53.094;8.800;2022-09-09T06:52:28;101394.03;;;15.30;100.00
29549;BME280;16487;53.094;8.800;2022-09-09T06:54:56;101400.13;;;15.29;100.00
29549;BME280;16487;53.094;8.800;2022-09-09T06:57:25;101389.84;;;15.35;100.00
29549;BME280;16487;53.094;8.800;2022-09-09T07:00:07;101388.28;;;15.34;100.00
29549;BME280;16487;53.094;8.800;2022-09-09T07:02:35;101379.59;;;15.41;100.00
29549;BME280;16487;53.094;8.800;2022-09-09T07:05:03;101367.78;;;15.46;100.00
29549;BME280;16487;53.094;8.800;2022-09-09T07:07:30;101357.94;;;15.50;100.00
29549;BME280;16487;53.094;8.800;2022-09-09T07:09:57;101363.59;;;15.59;100.00
29549;BME280;16487;53.094;8.800;2022-09-09T07:12:26;101362.19;;;15.55;100.00
29549;BME280;16487;53.094;8.800;2022-09-09T07:14:58;101352.41;;;15.68;100.00
29549;BME280;16487;53.094;8.800;2022-09-09T07:17:27;101349.91;;;15.70;100.00
29549;BME280;16487;53.094;8.800;2022-09-09T07:19:54;101346.19;;;15.82;100.00
29549;BME280;16487;53.094;8.800;2022-09-09T07:22:21;101349.94;;;15.88;100.00
29549;BME280;16487;53.094;8.800;2022-09-09T07:24:49;101341.53;;;15.97;100.00
29549;BME280;16487;53.094;8.800;2022-09-09T07:27:16;101334.50;;;16.02;100.00
29549;BME280;16487;53.094;8.800;2022-09-09T07:29:45;101323.44;;;16.17;100.00
29549;BME280;16487;53.094;8.800;2022-09-09T07:32:12;101316.72;;;16.23;100.00
29549;BME280;16487;53.094;8.800;2022-09-09T07:34:39;101305.63;;;16.38;100.00
29549;BME280;16487;53.094;8.800;2022-09-09T07:37:07;101299.69;;;16.54;100.00
29549;BME280;16487;53.094;8.800;2022-09-09T07:39:35;101293.91;;;16.66;100.00
29549;BME280;16487;53.094;8.800;2022-09-09T07:42:02;101285.75;;;16.77;100.00
29549;BME280;16487;53.094;8.800;2022-09-09T07:44:31;101279.63;;;16.88;100.00
29549;BME280;16487;53.094;8.800;2022-09-09T07:47:07;101268.03;;;16.95;100.00
29549;BME280;16487;53.094;8.800;2022-09-09T07:49:38;101278.56;;;17.18;100.00
29549;BME280;16487;53.094;8.800;2022-09-09T07:52:07;101255.72;;;17.16;100.00
29549;BME280;16487;53.094;8.800;2022-09-09T07:54:36;101254.97;;;17.15;100.00
29549;BME280;16487;53.094;8.800;2022-09-09T07:57:05;101244.06;;;17.32;100.00
29549;BME280;16487;53.094;8.800;2022-09-09T07:59:35;101229.03;;;17.68;100.00
29549;BME280;16487;53.094;8.800;2022-09-09T08:02:03;101219.78;;;17.67;100.00
29549;BME280;16487;53.094;8.800;2022-09-09T08:04:35;101201.59;;;17.68;100.00
29549;BME280;16487;53.094;8.800;2022-09-09T08:07:03;101210.59;;;17.81;100.00
29549;BME280;16487;53.094;8.800;2022-09-09T08:09:35;101201.09;;;18.08;100.00
29549;BME280;16487;53.094;8.800;2022-09-09T08:12:09;101178.25;;;18.06;100.00
29549;BME280;16487;53.094;8.800;2022-09-09T08:14:36;101176.03;;;18.24;100.00
29549;BME280;16487;53.094;8.800;2022-09-09T08:17:04;101169.19;;;18.16;100.00
29549;BME280;16487;53.094;8.800;2022-09-09T08:19:32;101159.00;;;18.34;100.00
29549;BME280;16487;53.094;8.800;2022-09-09T08:22:01;101160.06;;;18.21;100.00
29549;BME280;16487;53.094;8.800;2022-09-09T08:24:30;101163.16;;;18.23;100.00
29549;BME280;16487;53.094;8.800;2022-09-09T08:26:57;101139.59;;;17.97;100.00
29549;BME280;16487;53.094;8.800;2022-09-09T08:29:24;101150.53;;;18.19;100.00
29549;BME280;16487;53.094;8.800;2022-09-09T08:31:55;101152.84;;;18.20;100.00
29549;BME280;16487;53.094;8.800;2022-09-09T08:34:23;101147.13;;;18.29;100.00
29549;BME280;16487;53.094;8.800;2022-09-09T08:36:52;101149.56;;;18.37;100.00
29549;BME280;16487;53.094;8.800;2022-09-09T08:39:26;101137.28;;;18.69;100.00
29549;BME280;16487;53.094;8.800;2022-09-09T08:42:12;101136.72;;;18.65;100.00
29549;BME280;16487;53.094;8.800;2022-09-09T08:45:02;101133.34;;;18.81;100.00
29549;BME280;16487;53.094;8.800;2022-09-09T08:47:41;101124.03;;;18.75;100.00
29549;BME280;16487;53.094;8.800;2022-09-09T08:50:19;101117.16;;;18.61;100.00
29549;BME280;16487;53.094;8.800;2022-09-09T08:52:54;101128.09;;;18.74;100.00
29549;BME280;16487;53.094;8.800;2022-09-09T08:55:35;101133.72;;;18.88;100.00
29549;BME280;16487;53.094;8.800;2022-09-09T08:58:12;101111.75;;;18.78;100.00
29549;BME280;16487;53.094;8.800;2022-09-09T09:00:50;101114.41;;;19.21;100.00
29549;BME280;16487;53.094;8.800;2022-09-09T09:03:28;101102.63;;;19.43;100.00
29549;BME280;16487;53.094;8.800;2022-09-09T09:06:06;101086.16;;;19.42;100.00
29549;BME280;16487;53.094;8.800;2022-09-09T09:08:40;101086.53;;;19.49;100.00
29549;BME280;16487;53.094;8.800;2022-09-09T09:11:12;101069.44;;;19.64;100.00
29549;BME280;16487;53.094;8.800;2022-09-09T09:13:45;101061.16;;;19.80;100.00
29549;BME280;16487;53.094;8.800;2022-09-09T09:16:22;101039.38;;;19.92;100.00
29549;BME280;16487;53.094;8.800;2022-09-09T09:18:51;101032.19;;;19.91;100.00
29549;BME280;16487;53.094;8.800;2022-09-09T09:21:21;101034.22;;;19.90;100.00
29549;BME280;16487;53.094;8.800;2022-09-09T09:23:56;101015.97;;;19.91;100.00
29549;BME280;16487;53.094;8.800;2022-09-09T09:26:31;101016.63;;;20.06;100.00
29549;BME280;16487;53.094;8.800;2022-09-09T09:29:01;101008.13;;;20.37;100.00
29549;BME280;16487;53.094;8.800;2022-09-09T09:31:35;101010.69;;;20.35;100.00
29549;BME280;16487;53.094;8.800;2022-09-09T09:34:02;101006.31;;;20.03;100.00
29549;BME280;16487;53.094;8.800;2022-09-09T09:36:34;101002.41;;;20.26;100.00
29549;BME280;16487;53.094;8.800;2022-09-09T09:39:04;100993.03;;;20.52;100.00
29549;BME280;16487;53.094;8.800;2022-09-09T09:41:53;100982.81;;;20.23;100.00
29549;BME280;16487;53.094;8.800;2022-09-09T09:44:26;100996.38;;;20.13;100.00
29549;BME280;16487;53.094;8.800;2022-09-09T09:47:06;100989.72;;;20.16;100.00
29549;BME280;16487;53.094;8.800;2022-09-09T09:49:35;100992.69;;;20.07;100.00
29549;BME280;16487;53.094;8.800;2022-09-09T09:52:03;101015.41;;;19.56;100.00
29549;BME280;16487;53.094;8.800;2022-09-09T09:54:33;101018.94;;;19.51;100.00
29549;BME280;16487;53.094;8.800;2022-09-09T09:57:10;101023.81;;;19.51;100.00
29549;BME280;16487;53.094;8.800;2022-09-09T09:59:40;101023.53;;;19.74;100.00
29549;BME280;16487;53.094;8.800;2022-09-09T10:02:24;101029.94;;;20.00;100.00
29549;BME280;16487;53.094;8.800;2022-09-09T10:05:04;101017.28;;;20.21;100.00
29549;BME280;16487;53.094;8.800;2022-09-09T10:07:34;100994.75;;;21.50;100.00
29549;BME280;16487;53.094;8.800;2022-09-09T10:10:01;100955.69;;;22.72;100.00
29549;BME280;16487;53.094;8.800;2022-09-09T10:12:40;100951.19;;;22.14;100.00
29549;BME280;16487;53.094;8.800;2022-09-09T10:15:28;100966.53;;;21.08;100.00
29549;BME280;16487;53.094;8.800;2022-09-09T10:18:04;100968.75;;;21.85;100.00
29549;BME280;16487;53.094;8.800;2022-09-09T10:20:42;100951.59;;;22.56;100.00
29549;BME280;16487;53.094;8.800;2022-09-09T10:23:21;100932.19;;;22.72;100.00
29549;BME280;16487;53.094;8.800;2022-09-09T10:26:03;100919.47;;;22.89;100.00
29549;BME280;16487;53.094;8.800;2022-09-09T10:28:50;100912.66;;;22.40;100.00
29549;BME280;16487;53.094;8.800;2022-09-09T10:31:26;100939.06;;;21.80;100.00
29549;BME280;16487;53.094;8.800;2022-09-09T10:34:02;100960.22;;;22.12;100.00
29549;BME280;16487;53.094;8.800;2022-09-09T10:36:34;100982.88;;;21.57;100.00
29549;BME280;16487;53.094;8.800;2022-09-09T10:39:16;101007.66;;;21.62;100.00
29549;BME280;16487;53.094;8.800;2022-09-09T10:41:55;100999.66;;;21.66;100.00
29549;BME280;16487;53.094;8.800;2022-09-09T10:44:40;101008.66;;;21.48;100.00
29549;BME280;16487;53.094;8.800;2022-09-09T10:47:46;101015.66;;;21.75;100.00
29549;BME280;16487;53.094;8.800;2022-09-09T10:50:42;101007.16;;;21.80;100.00
29549;BME280;16487;53.094;8.800;2022-09-09T10:53:36;100997.84;;;21.63;100.00
29549;BME280;16487;53.094;8.800;2022-09-09T10:56:09;100995.78;;;21.63;100.00
29549;BME280;16487;53.094;8.800;2022-09-09T10:58:41;100984.47;;;21.97;100.00
29549;BME280;16487;53.094;8.800;2022-09-09T11:01:18;100968.41;;;22.43;100.00
29549;BME280;16487;53.094;8.800;2022-09-09T11:03:52;100981.59;;;21.63;100.00
29549;BME280;16487;53.094;8.800;2022-09-09T11:06:27;100964.38;;;21.78;100.00
29549;BME280;16487;53.094;8.800;2022-09-09T11:08:58;100973.78;;;21.25;100.00
29549;BME280;16487;53.094;8.800;2022-09-09T11:11:33;100967.16;;;21.50;100.00
29549;BME280;16487;53.094;8.800;2022-09-09T11:14:09;100963.28;;;21.70;100.00
29549;BME280;16487;53.094;8.800;2022-09-09T11:16:42;100954.56;;;21.79;100.00
29549;BME280;16487;53.094;8.800;2022-09-09T11:19:16;100955.31;;;22.02;100.00
29549;BME280;16487;53.094;8.800;2022-09-09T11:21:48;100962.25;;;21.62;100.00
29549;BME280;16487;53.094;8.800;2022-09-09T11:24:19;100946.81;;;22.07;100.00
29549;BME280;16487;53.094;8.800;2022-09-09T11:26:52;100928.72;;;22.10;100.00
29549;BME280;16487;53.094;8.800;2022-09-09T11:29:41;100916.22;;;22.46;100.00
29549;BME280;16487;53.094;8.800;2022-09-09T11:32:24;100892.06;;;22.86;100.00
29549;BME280;16487;53.094;8.800;2022-09-09T11:35:17;100890.75;;;22.24;100.00
29549;BME280;16487;53.094;8.800;2022-09-09T11:38:02;100909.91;;;21.63;100.00
29549;BME280;16487;53.094;8.800;2022-09-09T11:40:32;100909.41;;;21.59;100.00
29549;BME280;16487;53.094;8.800;2022-09-09T11:43:04;100921.88;;;20.92;100.00
29549;BME280;16487;53.094;8.800;2022-09-09T11:45:34;100919.84;;;20.98;100.00
29549;BME280;16487;53.094;8.800;2022-09-09T11:48:04;100918.75;;;20.79;100.00
29549;BME280;16487;53.094;8.800;2022-09-09T11:50:36;100913.72;;;20.46;100.00
29549;BME280;16487;53.094;8.800;2022-09-09T11:53:17;100916.78;;;20.42;100.00
29549;BME280;16487;53.094;8.800;2022-09-09T11:55:45;100935.47;;;20.23;100.00
29549;BME280;16487;53.094;8.800;2022-09-09T11:58:17;100922.06;;;20.18;100.00
29549;BME280;16487;53.094;8.800;2022-09-09T12:00:46;100861.94;;;19.92;100.00
29549;BME280;16487;53.094;8.800;2022-09-09T12:03:33;100828.28;;;20.05;100.00
29549;BME280;16487;53.094;8.800;2022-09-09T12:06:10;100755.44;;;19.95;100.00
29549;BME280;16487;53.094;8.800;2022-09-09T12:08:41;100755.97;;;19.88;100.00
29549;BME280;16487;53.094;8.800;2022-09-09T12:11:10;100785.31;;;19.96;100.00
29549;BME280;16487;53.094;8.800;2022-09-09T12:13:37;100816.06;;;19.77;100.00
29549;BME280;16487;53.094;8.800;2022-09-09T12:16:04;100827.09;;;19.75;100.00
29549;BME280;16487;53.094;8.800;2022-09-09T12:18:36;100889.34;;;19.44;100.00
29549;BME280;16487;53.094;8.800;2022-09-09T12:21:07;100938.13;;;19.39;100.00
29549;BME280;16487;53.094;8.800;2022-09-09T12:23:46;100991.31;;;19.20;100.00
29549;BME280;16487;53.094;8.800;2022-09-09T12:26:26;101033.38;;;18.93;100.00
29549;BME280;16487;53.094;8.800;2022-09-09T12:29:04;101065.13;;;18.68;100.00
29549;BME280;16487;53.094;8.800;2022-09-09T12:31:35;101081.59;;;18.55;100.00
29549;BME280;16487;53.094;8.800;2022-09-09T12:34:16;101072.06;;;18.38;100.00
29549;BME280;16487;53.094;8.800;2022-09-09T12:36:49;101084.38;;;18.05;100.00
29549;BME280;16487;53.094;8.800;2022-09-09T12:39:30;101144.63;;;17.79;100.00
29549;BME280;16487;53.094;8.800;2022-09-09T12:41:59;101190.53;;;17.79;100.00
29549;BME280;16487;53.094;8.800;2022-09-09T12:44:27;101255.25;;;17.97;100.00
29549;BME280;16487;53.094;8.800;2022-09-09T12:46:55;101332.31;;;18.03;100.00
29549;BME280;16487;53.094;8.800;2022-09-09T12:49:30;101396.00;;;18.19;100.00
29549;BME280;16487;53.094;8.800;2022-09-09T12:51:58;101454.00;;;18.20;100.00
29549;BME280;16487;53.094;8.800;2022-09-09T12:54:25;101458.25;;;18.15;100.00
29549;BME280;16487;53.094;8.800;2022-09-09T12:56:53;101481.22;;;18.32;100.00
29549;BME280;16487;53.094;8.800;2022-09-09T12:59:24;101471.84;;;18.26;100.00
29549;BME280;16487;53.094;8.800;2022-09-09T13:01:56;101467.09;;;18.41;100.00
29549;BME280;16487;53.094;8.800;2022-09-09T13:04:23;101460.91;;;18.52;100.00
29549;BME280;16487;53.094;8.800;2022-09-09T13:06:52;101451.75;;;18.57;100.00
29549;BME280;16487;53.094;8.800;2022-09-09T13:09:19;101439.03;;;18.61;100.00
29549;BME280;16487;53.094;8.800;2022-09-09T13:11:49;101397.44;;;18.62;100.00